createdAt,value
2022-08-07T00:01:44.664Z,96.90
2022-08-07T00:04:09.305Z,96.90
2022-08-07T00:06:51.162Z,97.10
2022-08-07T00:09:22.768Z,97.10
2022-08-07T00:11:55.615Z,97.90
2022-08-07T00:14:30.000Z,97.40
2022-08-07T00:17:02.082Z,97.10
2022-08-07T00:19:59.905Z,97.30
2022-08-07T00:22:24.459Z,97.70
2022-08-07T00:25:04.107Z,97.00
2022-08-07T00:27:51.859Z,97.40
2022-08-07T00:30:27.537Z,97.00
2022-08-07T00:33:00.282Z,96.90
2022-08-07T00:35:30.114Z,97.20
2022-08-07T00:37:59.012Z,97.00
2022-08-07T00:40:39.060Z,97.00
2022-08-07T00:43:10.498Z,97.20
2022-08-07T00:45:59.025Z,97.00
2022-08-07T00:48:32.112Z,97.00
2022-08-07T00:51:01.230Z,96.90
2022-08-07T00:53:39.127Z,96.80
2022-08-07T00:56:18.139Z,96.60
2022-08-07T00:58:47.007Z,96.50
2022-08-07T01:01:18.297Z,96.50
2022-08-07T01:03:57.313Z,96.40
2022-08-07T01:06:31.027Z,96.30
2022-08-07T01:09:01.631Z,96.40
2022-08-07T01:12:09.883Z,96.30
2022-08-07T01:14:28.427Z,96.30
2022-08-07T01:16:57.209Z,96.40
2022-08-07T01:19:28.270Z,96.10
2022-08-07T01:22:00.898Z,96.10
2022-08-07T01:24:31.641Z,96.10
2022-08-07T01:27:00.586Z,96.10
2022-08-07T01:29:31.381Z,96.10
2022-08-07T01:32:05.642Z,96.00
2022-08-07T01:34:40.994Z,96.00
2022-08-07T01:37:25.557Z,96.00
2022-08-07T01:39:53.391Z,95.90
2022-08-07T01:42:37.910Z,95.70
2022-08-07T01:45:10.079Z,95.70
2022-08-07T01:48:20.175Z,95.60
2022-08-07T01:50:32.857Z,95.50
2022-08-07T01:53:08.970Z,95.50
2022-08-07T01:55:41.140Z,95.40
2022-08-07T01:58:29.585Z,95.40
2022-08-07T02:01:09.343Z,95.40
2022-08-07T02:03:53.015Z,95.30
2022-08-07T02:06:31.577Z,95.20
2022-08-07T02:09:03.819Z,95.20
2022-08-07T02:12:04.696Z,95.20
2022-08-07T02:14:40.262Z,95.00
2022-08-07T02:17:09.545Z,94.80
2022-08-07T02:20:06.880Z,95.00
2022-08-07T02:22:41.178Z,95.10
2022-08-07T02:25:13.937Z,94.90
2022-08-07T02:27:52.143Z,94.80
2022-08-07T02:30:20.993Z,94.80
2022-08-07T02:33:00.493Z,94.70
2022-08-07T02:36:29.576Z,94.70
2022-08-07T02:38:28.145Z,94.60
2022-08-07T02:41:05.011Z,94.50
2022-08-07T02:43:39.429Z,94.50
2022-08-07T02:46:08.481Z,94.30
2022-08-07T02:48:36.374Z,94.30
2022-08-07T02:51:28.761Z,93.90
2022-08-07T02:53:58.433Z,94.30
2022-08-07T02:56:29.310Z,93.80
2022-08-07T02:59:02.301Z,94.00
2022-08-07T03:01:35.936Z,93.90
2022-08-07T03:04:12.850Z,93.70
2022-08-07T03:06:42.109Z,93.10
2022-08-07T03:09:13.836Z,93.50
2022-08-07T03:11:52.589Z,93.20
2022-08-07T03:14:27.829Z,93.20
2022-08-07T03:16:58.086Z,93.00
2022-08-07T03:19:28.730Z,92.90
2022-08-07T03:21:57.299Z,92.40
2022-08-07T03:24:28.300Z,93.10
2022-08-07T03:27:00.120Z,92.40
2022-08-07T03:29:37.654Z,92.40
2022-08-07T03:32:13.169Z,92.60
2022-08-07T03:34:46.989Z,92.60
2022-08-07T03:37:20.629Z,93.00
2022-08-07T03:40:13.433Z,92.80
2022-08-07T03:42:44.844Z,92.80
2022-08-07T03:45:29.758Z,93.10
2022-08-07T03:47:59.795Z,92.90
2022-08-07T03:50:28.539Z,93.20
2022-08-07T03:52:57.992Z,93.20
2022-08-07T03:55:57.378Z,93.10
2022-08-07T03:59:06.824Z,92.90
2022-08-07T04:01:01.925Z,93.20
2022-08-07T04:03:54.039Z,92.90
2022-08-07T04:06:37.678Z,92.30
2022-08-07T04:09:15.910Z,92.30
2022-08-07T04:12:24.710Z,91.70
2022-08-07T04:14:38.170Z,92.00
2022-08-07T04:17:20.243Z,92.40
2022-08-07T04:20:05.716Z,92.10
2022-08-07T04:22:33.967Z,92.20
2022-08-07T04:25:12.781Z,92.20
2022-08-07T04:27:44.207Z,92.40
2022-08-07T04:30:21.462Z,92.40
2022-08-07T04:33:07.457Z,92.70
2022-08-07T04:35:36.877Z,92.50
2022-08-07T04:38:08.810Z,92.60
2022-08-07T04:40:51.322Z,92.30
2022-08-07T04:44:10.064Z,92.30
2022-08-07T04:46:29.569Z,92.20
2022-08-07T04:49:25.486Z,92.50
2022-08-07T04:52:18.419Z,92.40
2022-08-07T04:55:01.807Z,92.40
2022-08-07T04:58:13.819Z,92.00
2022-08-07T05:01:04.171Z,92.20
2022-08-07T05:04:07.608Z,92.30
2022-08-07T05:06:52.876Z,92.10
2022-08-07T05:12:15.586Z,92.10
2022-08-07T05:15:04.476Z,92.20
2022-08-07T05:20:36.471Z,92.60
2022-08-07T05:23:15.578Z,92.20
2022-08-07T05:26:13.092Z,92.00
2022-08-07T05:28:48.470Z,92.10
2022-08-07T05:31:23.025Z,92.10
2022-08-07T05:34:04.754Z,92.00
2022-08-07T05:36:35.463Z,92.00
2022-08-07T05:40:05.237Z,92.00
2022-08-07T05:42:01.062Z,91.80
2022-08-07T05:44:41.543Z,92.10
2022-08-07T05:47:37.906Z,92.30
2022-08-07T05:50:04.144Z,92.10
2022-08-07T05:52:34.643Z,91.80
2022-08-07T05:55:10.456Z,91.70
2022-08-07T05:57:42.165Z,91.70
2022-08-07T06:00:16.127Z,91.80
2022-08-07T06:02:50.526Z,91.90
2022-08-07T06:05:28.102Z,91.80
2022-08-07T06:08:14.594Z,91.90
2022-08-07T06:10:51.235Z,91.40
2022-08-07T06:13:31.501Z,91.40
2022-08-07T06:16:22.428Z,91.50
2022-08-07T06:19:17.958Z,91.60
2022-08-07T06:22:16.519Z,91.20
2022-08-07T06:25:01.544Z,91.10
2022-08-07T06:28:00.609Z,91.30
2022-08-07T06:30:32.009Z,91.30
2022-08-07T06:33:09.975Z,91.50
2022-08-07T06:36:06.204Z,91.60
2022-08-07T06:38:35.846Z,91.60
2022-08-07T06:41:06.947Z,91.40
2022-08-07T06:43:39.866Z,91.50
2022-08-07T06:46:12.207Z,91.30
2022-08-07T06:48:41.912Z,91.50
2022-08-07T06:51:16.103Z,91.30
2022-08-07T06:55:33.879Z,91.30
2022-08-07T06:57:09.326Z,91.50
2022-08-07T07:00:14.774Z,91.40
2022-08-07T07:02:54.462Z,91.40
2022-08-07T07:06:03.200Z,91.30
2022-08-07T07:08:18.905Z,91.40
2022-08-07T07:10:56.454Z,91.10
2022-08-07T07:13:58.238Z,91.00
2022-08-07T07:16:44.987Z,91.50
2022-08-07T07:19:57.539Z,91.20
2022-08-07T07:22:33.900Z,91.00
2022-08-07T07:25:13.908Z,91.30
2022-08-07T07:27:58.583Z,91.60
2022-08-07T07:30:39.563Z,91.70
2022-08-07T07:33:11.347Z,91.90
2022-08-07T07:35:43.961Z,92.10
2022-08-07T07:38:31.277Z,92.20
2022-08-07T07:41:02.646Z,92.30
2022-08-07T07:43:48.030Z,92.40
2022-08-07T07:46:37.073Z,92.00
2022-08-07T07:50:29.601Z,92.30
2022-08-07T07:52:07.010Z,92.50
2022-08-07T07:54:35.978Z,92.30
2022-08-07T07:57:06.095Z,92.20
2022-08-07T07:59:52.604Z,92.20
2022-08-07T08:02:35.546Z,92.30
2022-08-07T08:05:11.503Z,92.40
2022-08-07T08:07:59.637Z,92.50
2022-08-07T08:10:35.554Z,92.50
2022-08-07T08:13:10.381Z,92.50
2022-08-07T08:15:58.945Z,92.60
2022-08-07T08:18:29.211Z,92.50
2022-08-07T08:20:59.610Z,92.80
2022-08-07T08:23:40.672Z,92.40
2022-08-07T08:26:28.917Z,92.50
2022-08-07T08:28:57.462Z,92.50
2022-08-07T08:32:10.210Z,92.60
2022-08-07T08:34:29.049Z,92.60
2022-08-07T08:36:58.517Z,92.70
2022-08-07T08:39:39.701Z,92.90
2022-08-07T08:42:28.474Z,92.70
2022-08-07T08:45:17.769Z,92.70
2022-08-07T08:48:00.838Z,92.70
2022-08-07T08:50:39.776Z,92.80
2022-08-07T08:53:28.290Z,92.80
2022-08-07T08:55:59.309Z,92.80
2022-08-07T08:58:50.569Z,92.90
2022-08-07T09:01:29.573Z,93.00
2022-08-07T09:04:25.693Z,93.00
2022-08-07T09:07:11.184Z,93.10
2022-08-07T09:09:47.624Z,93.10
2022-08-07T09:12:31.610Z,93.20
2022-08-07T09:16:22.376Z,93.20
2022-08-07T09:18:22.686Z,93.20
2022-08-07T09:21:13.865Z,93.30
2022-08-07T09:24:33.139Z,93.30
2022-08-07T09:27:28.768Z,93.20
2022-08-07T09:30:08.414Z,93.20
2022-08-07T09:32:49.202Z,93.20
2022-08-07T09:36:04.844Z,93.10
2022-08-07T09:38:36.363Z,93.10
2022-08-07T09:41:27.755Z,93.10
2022-08-07T09:44:20.049Z,93.00
2022-08-07T09:47:49.845Z,92.90
2022-08-07T09:50:18.895Z,92.90
2022-08-07T09:52:52.528Z,93.00
2022-08-07T09:56:03.151Z,93.10
2022-08-07T09:58:51.052Z,93.20
2022-08-07T10:01:52.051Z,93.40
2022-08-07T10:04:38.356Z,93.30
2022-08-07T10:07:24.636Z,93.50
2022-08-07T10:10:04.323Z,93.50
2022-08-07T10:12:52.728Z,94.00
2022-08-07T10:15:44.310Z,93.90
2022-08-07T10:18:33.016Z,94.10
2022-08-07T10:21:19.926Z,94.30
2022-08-07T10:24:18.630Z,94.10
2022-08-07T10:27:10.512Z,94.40
2022-08-07T10:29:59.661Z,94.50
2022-08-07T10:32:53.050Z,94.80
2022-08-07T10:35:56.710Z,94.50
2022-08-07T10:38:48.703Z,94.70
2022-08-07T10:41:51.559Z,94.80
2022-08-07T10:44:38.499Z,94.70
2022-08-07T10:47:51.612Z,94.90
2022-08-07T10:50:26.352Z,95.10
2022-08-07T10:53:08.107Z,94.90
2022-08-07T10:55:53.519Z,95.30
2022-08-07T10:58:41.123Z,95.30
2022-08-07T11:01:35.150Z,95.80
2022-08-07T11:04:37.496Z,95.60
2022-08-07T11:07:14.953Z,96.20
2022-08-07T11:10:08.830Z,96.40
2022-08-07T11:13:01.958Z,96.40
2022-08-07T11:15:33.681Z,96.40
2022-08-07T11:18:05.618Z,96.40
2022-08-07T11:20:47.159Z,96.30
2022-08-07T11:23:30.407Z,96.70
2022-08-07T11:26:17.024Z,96.40
2022-08-07T11:28:59.728Z,96.40
2022-08-07T11:31:35.497Z,96.40
2022-08-07T11:34:16.329Z,96.40
2022-08-07T11:36:58.228Z,96.40
2022-08-07T11:39:59.927Z,96.40
2022-08-07T11:42:41.797Z,96.30
2022-08-07T11:45:35.293Z,96.30
2022-08-07T11:48:29.451Z,96.60
2022-08-07T11:51:40.947Z,96.40
2022-08-07T11:54:25.751Z,96.50
2022-08-07T11:57:01.716Z,96.70
2022-08-07T12:00:10.989Z,97.00
2022-08-07T12:02:39.112Z,96.60
2022-08-07T12:05:47.172Z,96.50
2022-08-07T12:08:37.114Z,96.40
2022-08-07T12:11:20.548Z,96.30
2022-08-07T12:14:04.259Z,96.50
2022-08-07T12:16:35.874Z,96.80
2022-08-07T12:19:21.609Z,97.10
2022-08-07T12:22:37.447Z,97.10
2022-08-07T12:26:03.493Z,97.10
2022-08-07T12:28:15.558Z,97.20
2022-08-07T12:30:46.870Z,97.10
2022-08-07T12:33:28.241Z,97.50
2022-08-07T12:36:02.128Z,97.40
2022-08-07T12:38:42.864Z,97.10
2022-08-07T12:41:15.465Z,97.20
2022-08-07T12:44:02.540Z,97.40
2022-08-07T12:46:40.455Z,97.40
2022-08-07T12:49:25.708Z,97.20
2022-08-07T12:52:18.097Z,97.00
2022-08-07T12:54:54.731Z,97.10
2022-08-07T12:57:38.755Z,96.70
2022-08-07T13:00:30.988Z,96.80
2022-08-07T13:03:13.168Z,96.80
2022-08-07T13:06:21.332Z,96.80
2022-08-07T13:08:55.489Z,97.10
2022-08-07T13:12:02.077Z,96.90
2022-08-07T13:14:37.734Z,96.80
2022-08-07T13:17:40.618Z,96.70
2022-08-07T13:20:21.835Z,96.70
2022-08-07T13:23:59.953Z,96.60
2022-08-07T13:26:02.573Z,96.50
2022-08-07T13:28:37.104Z,96.40
2022-08-07T13:31:13.490Z,96.40
2022-08-07T13:34:33.615Z,96.30
2022-08-07T13:36:44.583Z,96.30
2022-08-07T13:40:32.914Z,96.30
2022-08-07T13:42:24.994Z,96.40
2022-08-07T13:44:55.466Z,96.50
2022-08-07T13:48:05.510Z,96.50
2022-08-07T13:50:44.487Z,96.50
2022-08-07T13:53:23.952Z,96.60
2022-08-07T13:55:54.870Z,96.60
2022-08-07T13:58:37.751Z,96.60
2022-08-07T14:01:16.439Z,96.80
2022-08-07T14:04:05.088Z,96.90
2022-08-07T14:06:53.440Z,97.10
2022-08-07T14:10:02.987Z,97.20
2022-08-07T14:12:20.989Z,97.00
2022-08-07T14:15:00.652Z,97.10
2022-08-07T14:18:23.969Z,97.20
2022-08-07T14:20:40.412Z,97.20
2022-08-07T14:24:01.048Z,97.40
2022-08-07T14:26:28.231Z,97.60
2022-08-07T14:29:04.335Z,97.60
2022-08-07T14:31:42.814Z,97.70
2022-08-07T14:34:29.288Z,97.50
2022-08-07T14:37:01.806Z,97.80
2022-08-07T14:40:16.164Z,98.30
2022-08-07T14:42:31.478Z,98.50
2022-08-07T14:45:21.951Z,98.70
2022-08-07T14:50:47.616Z,98.20
2022-08-07T14:54:05.817Z,98.30
2022-08-07T14:59:00.552Z,98.60
2022-08-07T15:04:25.160Z,98.70
2022-08-07T15:06:54.147Z,98.90
2022-08-07T15:09:57.559Z,98.90
2022-08-07T15:12:25.950Z,98.50
2022-08-07T15:15:07.456Z,98.90
2022-08-07T15:17:54.964Z,98.60
2022-08-07T15:23:20.435Z,99.00
2022-08-07T15:25:54.128Z,99.40
2022-08-07T15:28:35.177Z,99.40
2022-08-07T15:31:12.443Z,99.60
2022-08-07T15:34:03.131Z,99.60
2022-08-07T15:37:04.293Z,99.60
2022-08-07T15:39:56.805Z,99.90
2022-08-07T15:42:44.296Z,99.70
2022-08-07T15:45:56.385Z,99.50
2022-08-07T15:48:25.654Z,99.90
2022-08-07T15:51:01.605Z,99.90
2022-08-07T15:53:51.955Z,99.90
2022-08-07T15:56:24.694Z,99.90
2022-08-07T15:59:00.687Z,99.90
2022-08-07T16:01:38.854Z,99.80
2022-08-07T16:04:15.556Z,99.70
2022-08-07T16:06:48.857Z,99.70
2022-08-07T16:09:41.403Z,99.70
2022-08-07T16:12:30.291Z,99.90
2022-08-07T16:15:10.243Z,99.80
2022-08-07T16:18:49.479Z,99.90
2022-08-07T16:22:02.049Z,99.90
2022-08-07T16:24:03.513Z,99.70
2022-08-07T16:26:58.817Z,99.60
2022-08-07T16:30:09.702Z,99.50
2022-08-07T16:32:34.411Z,99.40
2022-08-07T16:35:58.320Z,99.30
2022-08-07T16:38:44.132Z,99.30
2022-08-07T16:41:22.694Z,99.40
2022-08-07T16:44:40.453Z,99.50
2022-08-07T16:47:22.926Z,99.80
2022-08-07T16:50:37.152Z,99.80
2022-08-07T16:53:48.302Z,99.70
2022-08-07T16:56:10.987Z,99.90
2022-08-07T16:59:11.429Z,99.90
2022-08-07T17:01:52.000Z,99.90
2022-08-07T17:04:58.067Z,99.70
2022-08-07T17:07:55.937Z,99.50
2022-08-07T17:10:32.702Z,99.60
2022-08-07T17:13:05.221Z,99.80
2022-08-07T17:15:43.680Z,99.80
2022-08-07T17:18:33.479Z,99.90
2022-08-07T17:21:18.522Z,99.90
2022-08-07T17:24:10.351Z,99.90
2022-08-07T17:27:00.825Z,99.90
2022-08-07T17:30:14.950Z,99.90
2022-08-07T17:32:52.173Z,99.90
2022-08-07T17:35:50.881Z,99.90
2022-08-07T17:38:33.093Z,99.90
2022-08-07T17:42:01.570Z,99.90
2022-08-07T17:44:13.707Z,99.90
2022-08-07T17:47:02.788Z,99.90
2022-08-07T17:49:44.487Z,99.90
2022-08-07T17:52:32.930Z,99.90
2022-08-07T17:55:06.354Z,99.90
2022-08-07T17:57:58.711Z,99.90
2022-08-07T18:00:34.656Z,99.90
2022-08-07T18:03:27.786Z,99.90
2022-08-07T18:06:01.456Z,99.90
2022-08-07T18:09:01.968Z,99.90
2022-08-07T18:12:06.991Z,99.90
2022-08-07T18:15:01.379Z,99.90
2022-08-07T18:18:47.072Z,99.90
2022-08-07T18:21:09.698Z,99.90
2022-08-07T18:23:43.516Z,99.90
2022-08-07T18:26:20.107Z,99.90
2022-08-07T18:30:06.695Z,99.90
2022-08-07T18:32:16.092Z,99.90
2022-08-07T18:35:04.225Z,99.90
2022-08-07T18:38:56.459Z,99.90
2022-08-07T18:40:53.760Z,99.90
2022-08-07T18:43:42.613Z,99.80
2022-08-07T18:46:31.549Z,99.90
2022-08-07T18:50:19.275Z,99.90
2022-08-07T18:52:35.400Z,99.90
2022-08-07T18:55:40.662Z,99.90
2022-08-07T18:58:28.180Z,99.90
2022-08-07T19:01:08.948Z,99.90
2022-08-07T19:04:04.087Z,99.90
2022-08-07T19:06:48.103Z,99.90
2022-08-07T19:09:56.738Z,99.90
2022-08-07T19:12:26.253Z,99.90
2022-08-07T19:16:03.602Z,99.90
2022-08-07T19:18:07.281Z,99.90
2022-08-07T19:21:09.613Z,99.90
2022-08-07T19:23:58.811Z,99.90
2022-08-07T19:26:47.921Z,99.90
2022-08-07T19:31:00.624Z,99.90
2022-08-07T19:32:39.543Z,99.90
2022-08-07T19:35:10.335Z,99.90
2022-08-07T19:37:55.177Z,99.90
2022-08-07T19:40:31.422Z,99.90
2022-08-07T19:43:03.013Z,99.90
2022-08-07T19:46:09.872Z,99.90
2022-08-07T19:48:25.201Z,99.90
2022-08-07T19:50:54.477Z,99.90
2022-08-07T19:54:33.107Z,99.90
2022-08-07T19:57:51.256Z,99.90
2022-08-07T19:59:12.937Z,99.90
2022-08-07T20:01:57.435Z,99.90
2022-08-07T20:04:31.345Z,99.90
2022-08-07T20:07:09.171Z,99.90
2022-08-07T20:10:36.032Z,99.90
2022-08-07T20:12:34.861Z,99.90
2022-08-07T20:15:09.757Z,99.90
2022-08-07T20:18:01.264Z,99.90
2022-08-07T20:20:31.759Z,99.90
2022-08-07T20:23:22.861Z,99.90
2022-08-07T20:25:53.403Z,99.90
2022-08-07T20:28:21.413Z,99.90
2022-08-07T20:30:58.122Z,99.90
2022-08-07T20:33:37.930Z,99.90
2022-08-07T20:36:08.796Z,99.90
2022-08-07T20:38:56.794Z,99.90
2022-08-07T20:41:34.298Z,99.90
2022-08-07T20:44:12.674Z,99.90
2022-08-07T20:46:43.690Z,99.90
2022-08-07T20:50:00.115Z,99.90
2022-08-07T20:52:00.933Z,99.90
2022-08-07T20:54:29.521Z,99.90
2022-08-07T20:57:05.389Z,99.90
2022-08-07T21:00:07.274Z,99.90
2022-08-07T21:02:39.057Z,99.90
2022-08-07T21:05:17.171Z,99.90
2022-08-07T21:08:09.855Z,99.90
2022-08-07T21:10:39.341Z,99.90
2022-08-07T21:13:11.683Z,99.90
2022-08-07T21:15:58.710Z,99.90
2022-08-07T21:18:33.378Z,99.90
2022-08-07T21:21:02.992Z,99.90
2022-08-07T21:23:50.109Z,99.90
2022-08-07T21:26:27.443Z,99.90
2022-08-07T21:29:02.171Z,99.90
2022-08-07T21:32:43.124Z,99.90
2022-08-07T21:34:53.593Z,99.90
2022-08-07T21:37:26.643Z,99.90
2022-08-07T21:40:35.869Z,99.90
2022-08-07T21:43:23.021Z,99.90
2022-08-07T21:46:13.996Z,99.90
2022-08-07T21:48:57.668Z,99.90
2022-08-07T21:51:51.862Z,99.90
2022-08-07T21:54:34.939Z,99.90
2022-08-07T21:57:39.871Z,99.90
2022-08-07T22:00:22.445Z,99.90
2022-08-07T22:03:16.699Z,99.90
2022-08-07T22:06:05.639Z,99.90
2022-08-07T22:08:41.528Z,99.90
2022-08-07T22:11:12.342Z,99.90
2022-08-07T22:13:51.866Z,99.90
2022-08-07T22:16:46.612Z,99.90
2022-08-07T22:19:30.133Z,99.90
2022-08-07T22:22:21.141Z,99.90
2022-08-07T22:25:12.304Z,99.90
2022-08-07T22:28:20.103Z,99.90
2022-08-07T22:30:53.288Z,99.90
2022-08-07T22:33:52.541Z,99.90
2022-08-07T22:36:18.200Z,99.90
2022-08-07T22:39:06.198Z,99.90
2022-08-07T22:42:03.464Z,99.90
2022-08-07T22:44:34.796Z,99.90
2022-08-07T22:47:17.149Z,99.90
2022-08-07T22:50:01.687Z,99.90
2022-08-07T22:52:43.458Z,99.90
2022-08-07T22:55:22.693Z,99.90
2022-08-07T22:58:04.092Z,99.90
2022-08-07T23:00:37.803Z,99.90
2022-08-07T23:03:20.657Z,99.90
2022-08-07T23:06:08.856Z,99.90
2022-08-07T23:08:57.712Z,99.90
2022-08-07T23:11:44.166Z,99.90
2022-08-07T23:14:26.028Z,99.90
2022-08-07T23:17:15.935Z,99.90
2022-08-07T23:20:12.448Z,99.90
2022-08-07T23:23:01.266Z,99.90
2022-08-07T23:25:45.236Z,99.90
2022-08-07T23:28:33.038Z,99.90
2022-08-07T23:31:18.462Z,99.90
2022-08-07T23:34:38.040Z,99.90
2022-08-07T23:37:29.404Z,99.90
2022-08-07T23:40:11.099Z,99.90
2022-08-07T23:42:53.237Z,99.90
2022-08-07T23:46:01.649Z,99.90
2022-08-07T23:48:47.119Z,99.90
2022-08-07T23:53:01.266Z,99.90
2022-08-07T23:54:36.441Z,99.90
2022-08-07T23:57:18.715Z,99.90
